Time;durP1;ratioP1;P1;durP2;ratioP2;P2;SDS_P1;SDS_P2;PMS_P1;PMS_P2;Temp;Humidity;BMP_temperature;BMP_pressure;BME280_temperature;BME280_humidity;BME280_pressure;Samples;Min_cycle;Max_cycle;Signal;HPM_P1;HPM_P2
2023/03/11 00:00:17;;;;;;;2.10;1.70;;;1.60;99.90;;;;;;4897598;29;20387;-48
2023/03/11 00:02:44;;;;;;;8.18;0.50;;;1.60;99.90;;;;;;4898047;29;20025;-42
2023/03/11 00:05:16;;;;;;;1.93;0.33;;;1.60;99.90;;;;;;4897832;29;20496;-42
2023/03/11 00:07:42;;;;;;;5.47;0.50;;;1.60;99.90;;;;;;4880969;29;20804;-41
2023/03/11 00:10:13;;;;;;;2.55;0.57;;;1.60;99.90;;;;;;4898011;29;20032;-42
2023/03/11 00:12:39;;;;;;;4.25;0.60;;;1.60;99.90;;;;;;4897886;29;20084;-42
2023/03/11 00:15:05;;;;;;;1.75;0.10;;;1.60;99.90;;;;;;4897661;29;20040;-44
2023/03/11 00:17:31;;;;;;;0.30;0.30;;;1.60;99.90;;;;;;4897695;29;20052;-41
2023/03/11 00:19:56;;;;;;;3.10;0.52;;;1.60;99.90;;;;;;4897775;29;20498;-46
2023/03/11 00:22:22;;;;;;;3.60;0.40;;;1.60;99.90;;;;;;4897879;29;20506;-45
2023/03/11 00:24:47;;;;;;;0.57;0.30;;;1.60;99.90;;;;;;4897696;29;20039;-40
2023/03/11 00:27:13;;;;;;;6.18;0.57;;;1.60;99.90;;;;;;4897551;29;20449;-42
2023/03/11 00:29:39;;;;;;;6.10;0.50;;;1.60;99.90;;;;;;4897565;29;20490;-46
2023/03/11 00:32:04;;;;;;;6.20;0.47;;;1.60;99.90;;;;;;4897636;29;20040;-42
2023/03/11 00:34:30;;;;;;;3.63;0.60;;;1.60;99.90;;;;;;4897474;29;20082;-42
2023/03/11 00:36:56;;;;;;;2.42;0.80;;;1.60;99.90;;;;;;4897388;29;20039;-45
2023/03/11 00:39:22;;;;;;;3.78;0.50;;;1.60;99.90;;;;;;4897591;29;20115;-44
2023/03/11 00:41:47;;;;;;;5.70;0.50;;;1.60;99.90;;;;;;4897820;29;20035;-43
2023/03/11 00:44:13;;;;;;;1.92;0.63;;;1.60;99.90;;;;;;4898369;29;20037;-50
2023/03/11 00:46:39;;;;;;;4.75;0.70;;;1.60;99.90;;;;;;4901174;29;20079;-47
2023/03/11 00:49:05;;;;;;;0.55;0.35;;;1.60;99.90;;;;;;4901088;29;20680;-46
2023/03/11 00:51:31;;;;;;;3.53;0.45;;;1.60;99.90;;;;;;4901023;29;20119;-47
2023/03/11 00:53:58;;;;;;;6.25;0.68;;;1.60;99.90;;;;;;4900904;29;20111;-42
2023/03/11 00:56:24;;;;;;;0.20;0.00;;;1.60;99.90;;;;;;4901007;29;20032;-45
2023/03/11 00:58:49;;;;;;;1.77;0.30;;;1.60;99.90;;;;;;4890657;29;20037;-42
2023/03/11 01:01:17;;;;;;;2.75;0.28;;;1.50;99.90;;;;;;4882243;29;20465;-44
2023/03/11 01:03:43;;;;;;;;;;;1.50;99.90;;;;;;4882924;29;20067;-43
2023/03/11 01:06:09;;;;;;;2.20;0.40;;;1.60;99.90;;;;;;4882126;29;19912;-43
2023/03/11 01:08:35;;;;;;;4.90;0.60;;;1.60;99.90;;;;;;4882346;29;20486;-44
2023/03/11 01:11:03;;;;;;;1.35;0.60;;;1.50;99.90;;;;;;4865294;29;20063;-45
2023/03/11 01:13:29;;;;;;;2.57;0.20;;;1.50;99.90;;;;;;4881983;29;20040;-47
2023/03/11 01:15:56;;;;;;;8.77;1.23;;;1.50;99.90;;;;;;4881945;29;20040;-49
2023/03/11 01:18:22;;;;;;;7.82;0.57;;;1.50;99.90;;;;;;4882133;29;20501;-43
2023/03/11 01:20:48;;;;;;;3.15;0.55;;;1.50;99.90;;;;;;4882033;29;20025;-42
2023/03/11 01:23:18;;;;;;;5.22;0.57;;;1.40;99.90;;;;;;4881820;29;20484;-44
2023/03/11 01:25:44;;;;;;;0.38;0.25;;;1.50;99.90;;;;;;4881581;29;20063;-43
2023/03/11 01:28:10;;;;;;;4.35;0.63;;;1.40;99.90;;;;;;4881334;29;20493;-51
2023/03/11 01:30:38;;;;;;;8.18;0.85;;;1.50;99.90;;;;;;4881794;29;20025;-45
2023/03/11 01:33:04;;;;;;;1.35;1.10;;;1.40;99.90;;;;;;4881661;29;20033;-47
2023/03/11 01:35:31;;;;;;;1.38;0.50;;;1.40;99.90;;;;;;4881541;29;20098;-44
2023/03/11 01:37:58;;;;;;;1.23;0.28;;;1.40;99.90;;;;;;4881507;29;20039;-45
2023/03/11 01:40:29;;;;;;;5.13;0.40;;;1.40;99.90;;;;;;4881581;29;20505;-39
2023/03/11 01:42:54;;;;;;;3.40;0.45;;;1.40;99.90;;;;;;4881288;29;20045;-41
2023/03/11 01:45:33;;;;;;;6.88;0.38;;;1.40;99.90;;;;;;4881609;29;20493;-37
2023/03/11 01:47:59;;;;;;;2.25;0.80;;;1.40;99.90;;;;;;4881255;29;20517;-40
2023/03/11 01:50:28;;;;;;;0.57;0.43;;;1.40;99.90;;;;;;4881316;29;20041;-39
2023/03/11 01:52:53;;;;;;;1.25;0.30;;;1.40;99.90;;;;;;4881291;29;20041;-46
2023/03/11 01:55:19;;;;;;;0.32;0.25;;;1.30;99.90;;;;;;4880396;29;20033;-45
2023/03/11 01:57:46;;;;;;;3.30;0.70;;;1.30;99.90;;;;;;4880726;29;20033;-48
2023/03/11 02:00:14;;;;;;;0.90;0.43;;;1.30;99.90;;;;;;4880979;29;20047;-46
2023/03/11 02:02:50;;;;;;;1.65;0.45;;;1.30;99.90;;;;;;4881062;29;20415;-46
2023/03/11 02:05:19;;;;;;;2.90;0.40;;;1.30;99.90;;;;;;4880400;29;20116;-48
2023/03/11 02:07:45;;;;;;;0.45;0.45;;;1.30;99.90;;;;;;4881025;29;20081;-45
2023/03/11 02:10:12;;;;;;;8.20;0.63;;;1.20;99.90;;;;;;4880960;29;20505;-46
2023/03/11 02:12:39;;;;;;;6.32;0.68;;;1.30;99.90;;;;;;4880905;29;20454;-49
2023/03/11 02:15:06;;;;;;;0.40;0.30;;;1.30;99.90;;;;;;4880942;29;20492;-41
2023/03/11 02:17:33;;;;;;;0.30;0.20;;;1.20;99.90;;;;;;4881128;29;20227;-50
2023/03/11 02:20:04;;;;;;;0.45;0.40;;;1.20;99.90;;;;;;4880741;29;20173;-46
2023/03/11 02:22:32;;;;;;;4.50;0.63;;;1.20;99.90;;;;;;4880666;29;20029;-48
2023/03/11 02:25:08;;;;;;;0.88;0.45;;;1.20;99.90;;;;;;4880711;29;20124;-41
2023/03/11 02:27:38;;;;;;;10.50;0.63;;;1.20;99.90;;;;;;4880976;29;20418;-42
2023/03/11 02:30:05;;;;;;;1.15;0.70;;;1.20;99.90;;;;;;4880943;29;20037;-44
2023/03/11 02:32:31;;;;;;;2.20;0.70;;;1.30;99.90;;;;;;4880855;29;20033;-49
2023/03/11 02:34:57;;;;;;;1.35;0.60;;;1.30;99.90;;;;;;4880464;29;20040;-45
2023/03/11 02:37:23;;;;;;;0.73;0.47;;;1.30;99.90;;;;;;4880548;29;20033;-44
2023/03/11 02:39:51;;;;;;;6.85;2.38;;;1.20;99.90;;;;;;4880533;29;20375;-46
2023/03/11 02:42:26;;;;;;;1.27;0.63;;;1.30;99.90;;;;;;4880450;29;20064;-44
2023/03/11 02:45:07;;;;;;;3.85;0.52;;;1.30;99.90;;;;;;4863755;29;20490;-48
2023/03/11 02:47:36;;;;;;;0.60;0.40;;;1.30;99.90;;;;;;4880375;29;20064;-49
2023/03/11 02:50:02;;;;;;;2.03;0.70;;;1.20;99.90;;;;;;4880083;29;20028;-44
2023/03/11 02:52:28;;;;;;;1.67;0.28;;;1.10;99.90;;;;;;4878797;29;20586;-46
2023/03/11 02:54:54;;;;;;;2.13;0.50;;;1.10;99.90;;;;;;4879222;29;20032;-46
2023/03/11 02:57:19;;;;;;;0.65;0.40;;;1.00;99.90;;;;;;4879500;29;20482;-44
2023/03/11 02:59:45;;;;;;;0.70;0.43;;;1.00;99.90;;;;;;4876005;29;20517;-50
2023/03/11 03:02:10;;;;;;;5.63;0.60;;;1.00;99.90;;;;;;4879761;29;20056;-44
2023/03/11 03:04:36;;;;;;;1.27;0.32;;;1.00;99.90;;;;;;4879942;29;20029;-43
2023/03/11 03:07:02;;;;;;;1.17;0.73;;;1.00;99.90;;;;;;4862794;29;20045;-43
2023/03/11 03:09:27;;;;;;;2.33;0.43;;;1.00;99.90;;;;;;4879881;29;20394;-44
2023/03/11 03:11:53;;;;;;;4.90;0.38;;;1.00;99.90;;;;;;4879895;29;20037;-44
2023/03/11 03:14:18;;;;;;;1.90;0.57;;;1.10;99.90;;;;;;4879900;29;20444;-43
2023/03/11 03:16:44;;;;;;;1.98;0.63;;;1.10;99.90;;;;;;4878511;29;20076;-45
2023/03/11 03:19:10;;;;;;;3.15;0.80;;;1.00;99.90;;;;;;4879451;29;20066;-44
2023/03/11 03:21:35;;;;;;;3.10;0.70;;;1.00;99.90;;;;;;4879418;29;20032;-44
2023/03/11 03:24:01;;;;;;;2.72;0.50;;;1.00;99.90;;;;;;4879386;29;20033;-43
2023/03/11 03:26:27;;;;;;;1.38;0.60;;;1.00;99.90;;;;;;4879391;29;20111;-44
2023/03/11 03:28:52;;;;;;;2.33;0.40;;;1.00;99.90;;;;;;4877535;29;20037;-44
2023/03/11 03:31:18;;;;;;;1.67;0.50;;;1.00;99.90;;;;;;4877506;29;20490;-42
2023/03/11 03:33:44;;;;;;;0.70;0.47;;;1.00;99.90;;;;;;4872969;29;20638;-45
2023/03/11 03:36:12;;;;;;;0.57;0.57;;;1.00;99.90;;;;;;4876582;29;20017;-47
2023/03/11 03:38:38;;;;;;;4.18;0.60;;;0.90;99.90;;;;;;4879113;29;20037;-50
2023/03/11 03:41:03;;;;;;;3.25;0.63;;;0.90;99.90;;;;;;4878365;29;20478;-43
2023/03/11 03:43:29;;;;;;;8.60;0.70;;;0.80;99.90;;;;;;4879242;29;20029;-37
2023/03/11 03:46:00;;;;;;;5.60;0.65;;;0.80;99.90;;;;;;4874146;29;20035;-38
2023/03/11 03:48:26;;;;;;;1.45;0.50;;;0.80;99.90;;;;;;4875462;29;20040;-40
2023/03/11 03:50:52;;;;;;;2.38;1.23;;;0.80;99.90;;;;;;4878263;29;20029;-40
2023/03/11 03:53:18;;;;;;;2.30;0.50;;;0.70;99.90;;;;;;4878880;29;20131;-41
2023/03/11 03:55:44;;;;;;;1.20;0.50;;;0.70;99.90;;;;;;4878801;29;20037;-37
2023/03/11 03:58:09;;;;;;;1.45;0.73;;;0.70;99.90;;;;;;4878463;29;20080;-38
2023/03/11 04:00:35;;;;;;;5.53;0.95;;;0.70;99.90;;;;;;4863105;29;20034;-39
2023/03/11 04:03:01;;;;;;;1.70;0.90;;;0.70;99.90;;;;;;4876902;29;20029;-37
2023/03/11 04:05:27;;;;;;;3.50;0.82;;;0.70;99.90;;;;;;4860460;29;20041;-38
2023/03/11 04:07:53;;;;;;;1.95;1.10;;;0.60;99.90;;;;;;4877887;29;20478;-37
2023/03/11 04:10:19;;;;;;;0.70;0.45;;;0.60;99.90;;;;;;4877159;29;20048;-36
2023/03/11 04:12:45;;;;;;;7.28;0.60;;;0.60;99.90;;;;;;4879033;29;20486;-39
2023/03/11 04:15:11;;;;;;;3.67;0.45;;;0.60;99.90;;;;;;4877478;29;20044;-41
2023/03/11 04:17:37;;;;;;;4.50;0.60;;;0.60;99.90;;;;;;4864741;29;20025;-37
2023/03/11 04:20:06;;;;;;;2.97;0.65;;;0.60;99.90;;;;;;4863614;29;20109;-36
2023/03/11 04:22:31;;;;;;;2.03;0.60;;;0.60;99.90;;;;;;4881889;29;20025;-40
2023/03/11 04:24:57;;;;;;;2.05;0.70;;;0.60;99.90;;;;;;4882803;29;20033;-38
2023/03/11 04:27:23;;;;;;;2.63;0.80;;;0.60;99.90;;;;;;4880257;29;20550;-38
2023/03/11 04:29:48;;;;;;;0.65;0.65;;;0.60;99.90;;;;;;4882701;29;20116;-41
2023/03/11 04:32:14;;;;;;;1.27;0.82;;;0.50;99.90;;;;;;4882690;29;20033;-40
2023/03/11 04:34:40;;;;;;;1.38;0.60;;;0.40;99.90;;;;;;4881583;29;20486;-37
2023/03/11 04:37:06;;;;;;;1.00;0.57;;;0.40;99.90;;;;;;4881345;29;20036;-38
2023/03/11 04:39:32;;;;;;;2.03;0.63;;;0.50;99.90;;;;;;4881855;29;20021;-39
2023/03/11 04:41:57;;;;;;;0.95;0.50;;;0.50;99.90;;;;;;4881492;29;20063;-40
2023/03/11 04:44:23;;;;;;;7.32;0.98;;;0.50;99.90;;;;;;4881519;29;20064;-41
2023/03/11 04:46:49;;;;;;;0.70;0.35;;;0.50;99.90;;;;;;4881888;29;20033;-39
2023/03/11 04:49:15;;;;;;;3.17;0.70;;;0.60;99.90;;;;;;4881686;29;20056;-35
2023/03/11 04:51:41;;;;;;;1.75;0.63;;;0.60;99.90;;;;;;4879330;29;20029;-41
2023/03/11 04:54:07;;;;;;;0.65;0.65;;;0.60;99.90;;;;;;4882252;29;20033;-40
2023/03/11 04:56:33;;;;;;;3.53;0.93;;;0.50;99.90;;;;;;4882227;29;20081;-40
2023/03/11 04:58:58;;;;;;;5.03;0.60;;;0.40;99.90;;;;;;4881093;29;20542;-40
2023/03/11 05:01:24;;;;;;;8.50;0.75;;;0.40;99.90;;;;;;4881243;29;20025;-40
2023/03/11 05:03:49;;;;;;;1.63;1.10;;;0.50;99.90;;;;;;4880329;29;20033;-38
2023/03/11 05:06:15;;;;;;;2.15;1.30;;;0.50;99.90;;;;;;4882184;29;20120;-40
2023/03/11 05:08:41;;;;;;;0.82;0.55;;;0.50;99.90;;;;;;4881130;29;20095;-39
2023/03/11 05:11:07;;;;;;;2.38;0.55;;;0.50;99.90;;;;;;4880507;29;20033;-38
2023/03/11 05:13:33;;;;;;;4.07;0.60;;;0.50;99.90;;;;;;4881846;29;20064;-39
2023/03/11 05:15:58;;;;;;;1.45;0.50;;;0.50;99.90;;;;;;4881929;29;20132;-38
2023/03/11 05:18:24;;;;;;;2.92;1.02;;;0.40;99.90;;;;;;4864211;29;20041;-41
2023/03/11 05:20:50;;;;;;;1.17;0.60;;;0.40;99.90;;;;;;4880952;29;20025;-39
2023/03/11 05:23:16;;;;;;;3.10;0.90;;;0.40;99.90;;;;;;4881773;29;20025;-37
2023/03/11 05:25:41;;;;;;;3.88;0.70;;;0.40;99.90;;;;;;4881747;29;20040;-39
2023/03/11 05:28:07;;;;;;;3.20;0.85;;;0.40;99.90;;;;;;4880840;29;20033;-40
2023/03/11 05:30:33;;;;;;;7.22;1.13;;;0.40;99.90;;;;;;4880966;29;20032;-41
2023/03/11 05:32:58;;;;;;;0.57;0.43;;;0.30;99.90;;;;;;4880702;29;20089;-38
2023/03/11 05:35:24;;;;;;;0.88;0.40;;;0.30;99.90;;;;;;4881516;29;20509;-39
2023/03/11 05:37:50;;;;;;;5.63;0.98;;;0.40;99.90;;;;;;4880689;29;20025;-36
2023/03/11 05:40:16;;;;;;;0.82;0.70;;;0.30;99.90;;;;;;4880059;29;20112;-41
2023/03/11 05:42:41;;;;;;;3.83;0.77;;;0.30;99.90;;;;;;4879196;29;20024;-39
2023/03/11 05:45:08;;;;;;;4.53;0.57;;;0.30;99.90;;;;;;4881407;29;20033;-39
2023/03/11 05:47:34;;;;;;;1.40;0.40;;;0.20;99.90;;;;;;4880342;29;20070;-41
2023/03/11 05:50:00;;;;;;;1.50;0.60;;;0.30;99.90;;;;;;4880689;29;20116;-40
2023/03/11 05:52:25;;;;;;;2.05;0.73;;;0.20;99.90;;;;;;4880652;29;20732;-41
2023/03/11 05:54:53;;;;;;;4.32;0.65;;;0.20;99.90;;;;;;4881435;29;20121;-37
2023/03/11 05:57:19;;;;;;;0.77;0.73;;;0.20;99.90;;;;;;4880904;29;20494;-42
2023/03/11 05:59:45;;;;;;;2.60;0.80;;;0.20;99.90;;;;;;4878444;29;20116;-41
2023/03/11 06:02:10;;;;;;;1.13;1.02;;;0.20;99.90;;;;;;4881304;29;20113;-42
2023/03/11 06:04:36;;;;;;;0.75;0.65;;;0.20;99.90;;;;;;4880739;29;20032;-39
2023/03/11 06:07:02;;;;;;;4.95;1.30;;;0.20;99.90;;;;;;4881119;29;20486;-40
2023/03/11 06:09:28;;;;;;;3.70;1.00;;;0.20;99.90;;;;;;4879589;29;20056;-40
2023/03/11 06:11:53;;;;;;;1.88;1.00;;;0.20;99.90;;;;;;4880996;29;20400;-37
2023/03/11 06:14:19;;;;;;;6.97;0.98;;;0.20;99.90;;;;;;4879974;29;20116;-39
2023/03/11 06:16:45;;;;;;;0.85;0.70;;;0.20;99.90;;;;;;4880927;29;20057;-42
2023/03/11 06:19:10;;;;;;;7.25;0.80;;;0.20;99.90;;;;;;4880014;29;20060;-46
2023/03/11 06:21:36;;;;;;;4.80;0.88;;;0.20;99.90;;;;;;4880305;29;20398;-48
2023/03/11 06:24:02;;;;;;;0.70;0.70;;;0.20;99.90;;;;;;4879958;29;20436;-38
2023/03/11 06:26:27;;;;;;;1.35;0.47;;;0.20;99.90;;;;;;4861651;29;20442;-40
2023/03/11 06:28:53;;;;;;;1.15;0.70;;;0.10;99.90;;;;;;4863974;29;20045;-46
2023/03/11 06:31:25;;;;;;;1.38;0.70;;;0.20;99.90;;;;;;4880628;29;20033;-45
2023/03/11 06:33:52;;;;;;;4.00;1.08;;;0.20;99.90;;;;;;4879578;29;20446;-48
2023/03/11 06:36:18;;;;;;;4.60;1.38;;;0.30;99.90;;;;;;4880307;29;20033;-49
2023/03/11 06:38:48;;;;;;;0.90;0.65;;;0.40;99.90;;;;;;4880493;29;20077;-45
2023/03/11 06:41:15;;;;;;;2.55;1.30;;;0.40;99.90;;;;;;4863474;29;20036;-43
2023/03/11 06:43:42;;;;;;;3.40;1.08;;;0.50;99.90;;;;;;4874190;29;20040;-47
2023/03/11 06:46:14;;;;;;;4.68;1.15;;;0.60;99.90;;;;;;4899040;29;20025;-48
2023/03/11 06:48:39;;;;;;;2.17;0.90;;;0.70;99.90;;;;;;4890773;29;20037;-47
2023/03/11 06:51:06;;;;;;;3.00;1.42;;;0.70;99.90;;;;;;4880360;29;20486;-46
2023/03/11 06:53:31;;;;;;;1.40;1.17;;;0.80;99.90;;;;;;4878886;29;20060;-51
2023/03/11 06:56:15;;;;;;;12.38;1.33;;;0.90;99.90;;;;;;4880205;29;20057;-42
2023/03/11 06:58:42;;;;;;;5.03;1.52;;;1.00;99.90;;;;;;4888997;29;20044;-39
2023/03/11 07:01:12;;;;;;;2.30;1.20;;;1.00;99.90;;;;;;4892606;29;20475;-39
2023/03/11 07:03:38;;;;;;;4.90;1.27;;;1.10;99.90;;;;;;4862597;29;20064;-37
2023/03/11 07:06:04;;;;;;;1.25;1.15;;;1.10;99.90;;;;;;4880067;29;20029;-41
2023/03/11 07:08:30;;;;;;;1.83;0.68;;;1.20;99.90;;;;;;4880235;29;20464;-36
2023/03/11 07:11:03;;;;;;;6.32;1.27;;;1.20;99.90;;;;;;4879260;29;20099;-39
2023/03/11 07:13:29;;;;;;;3.15;1.25;;;1.30;99.90;;;;;;4879014;29;20061;-38
2023/03/11 07:16:14;;;;;;;5.72;1.17;;;1.40;99.90;;;;;;4879805;29;20463;-40
2023/03/11 07:18:40;;;;;;;4.82;1.00;;;1.40;99.90;;;;;;4879173;29;20035;-40
2023/03/11 07:21:07;;;;;;;2.78;1.05;;;1.50;99.90;;;;;;4879353;29;20033;-40
2023/03/11 07:23:34;;;;;;;3.65;0.90;;;1.60;99.90;;;;;;4878861;29;20383;-41
2023/03/11 07:26:00;;;;;;;3.47;1.73;;;1.70;99.90;;;;;;4878881;29;20037;-37
2023/03/11 07:28:27;;;;;;;1.48;1.25;;;1.80;99.90;;;;;;4879643;29;20482;-41
2023/03/11 07:30:54;;;;;;;0.65;0.65;;;1.90;99.90;;;;;;4862363;29;20085;-40
2023/03/11 07:33:21;;;;;;;4.40;1.55;;;2.00;99.90;;;;;;4878779;29;20029;-40
2023/03/11 07:35:48;;;;;;;3.20;0.95;;;2.10;99.90;;;;;;4879382;29;20101;-41
2023/03/11 07:38:15;;;;;;;3.55;1.30;;;2.20;99.90;;;;;;4878791;29;20545;-39
2023/03/11 07:40:41;;;;;;;2.13;1.20;;;2.20;99.90;;;;;;4879702;29;20032;-39
2023/03/11 07:43:06;;;;;;;9.77;1.02;;;2.30;99.90;;;;;;4876633;29;20025;-41
2023/03/11 07:45:32;;;;;;;2.60;1.10;;;2.40;99.90;;;;;;4877198;29;20494;-46
2023/03/11 07:47:58;;;;;;;3.42;1.00;;;2.50;99.90;;;;;;4878799;29;20029;-48
2023/03/11 07:50:23;;;;;;;2.85;1.20;;;2.60;99.90;;;;;;4879626;29;20029;-51
2023/03/11 07:52:49;;;;;;;7.57;1.00;;;2.70;99.90;;;;;;4877955;29;20104;-46
2023/03/11 07:55:15;;;;;;;4.22;1.17;;;2.70;99.90;;;;;;4878528;29;20037;-44
2023/03/11 07:57:41;;;;;;;4.18;1.55;;;2.80;99.90;;;;;;4880577;29;20025;-46
2023/03/11 08:00:08;;;;;;;4.95;1.33;;;2.90;99.90;;;;;;4881235;29;20386;-49
2023/03/11 08:02:34;;;;;;;2.40;0.98;;;3.00;99.90;;;;;;4878096;29;20043;-42
2023/03/11 08:04:59;;;;;;;6.53;0.77;;;3.00;99.90;;;;;;4878702;29;20116;-47
2023/03/11 08:07:25;;;;;;;4.40;1.00;;;3.10;99.90;;;;;;4878981;29;20140;-47
2023/03/11 08:09:51;;;;;;;4.55;0.95;;;3.20;99.90;;;;;;4879084;29;20029;-38
2023/03/11 08:12:17;;;;;;;10.07;1.75;;;3.30;99.90;;;;;;4860792;29;20068;-41
2023/03/11 08:14:42;;;;;;;7.38;1.25;;;3.30;99.90;;;;;;4878910;29;20388;-38
2023/03/11 08:17:09;;;;;;;0.65;0.63;;;3.40;99.90;;;;;;4878979;29;20025;-36
2023/03/11 08:19:35;;;;;;;1.95;0.68;;;3.50;99.90;;;;;;4878060;29;20060;-36
2023/03/11 08:22:02;;;;;;;2.30;0.88;;;3.50;99.90;;;;;;4878733;29;20032;-44
2023/03/11 08:24:28;;;;;;;3.60;1.10;;;3.60;99.90;;;;;;4879083;29;20033;-51
2023/03/11 08:26:55;;;;;;;5.45;1.15;;;3.70;99.90;;;;;;4879302;29;20066;-57
2023/03/11 08:29:24;;;;;;;4.47;0.77;;;3.70;99.90;;;;;;4878018;29;20044;-50
2023/03/11 08:31:49;;;;;;;4.18;1.00;;;3.80;99.90;;;;;;4878684;29;20642;-44
2023/03/11 08:34:16;;;;;;;3.88;0.80;;;3.80;99.90;;;;;;4877455;29;20041;-49
2023/03/11 08:36:42;;;;;;;4.43;1.00;;;3.90;99.90;;;;;;4861529;29;20502;-44
2023/03/11 08:39:08;;;;;;;4.50;0.85;;;3.90;99.90;;;;;;4878761;29;20044;-45
2023/03/11 08:41:34;;;;;;;0.90;0.90;;;4.10;99.90;;;;;;4878202;29;20037;-43
2023/03/11 08:44:00;;;;;;;3.65;0.80;;;4.10;99.90;;;;;;4879053;29;20033;-47
2023/03/11 08:46:27;;;;;;;7.22;1.13;;;4.20;99.90;;;;;;4860034;29;20040;-47
2023/03/11 08:48:53;;;;;;;1.05;0.90;;;4.30;99.90;;;;;;4878023;29;20069;-46
2023/03/11 08:51:20;;;;;;;2.28;0.82;;;4.40;99.90;;;;;;4877874;29;20538;-49
2023/03/11 08:53:45;;;;;;;2.65;0.70;;;4.50;99.90;;;;;;4860521;29;20554;-42
2023/03/11 08:56:11;;;;;;;3.60;0.80;;;4.60;99.90;;;;;;4878753;29;20041;-46
2023/03/11 08:58:37;;;;;;;0.38;0.30;;;4.70;99.90;;;;;;4874261;29;20046;-47
2023/03/11 09:01:04;;;;;;;3.22;0.40;;;4.70;99.90;;;;;;4864890;29;20562;-46
2023/03/11 09:03:35;;;;;;;4.85;0.90;;;4.90;99.90;;;;;;4877780;29;20105;-46
2023/03/11 09:06:06;;;;;;;3.33;0.43;;;5.00;99.90;;;;;;4880756;29;20032;-44
2023/03/11 09:08:32;;;;;;;1.55;0.50;;;5.10;99.90;;;;;;4881628;29;20337;-45
2023/03/11 09:10:58;;;;;;;2.45;0.47;;;5.20;99.90;;;;;;4881432;29;20103;-45
2023/03/11 09:13:23;;;;;;;3.65;0.40;;;5.20;99.90;;;;;;4882049;29;20567;-43
2023/03/11 09:15:52;;;;;;;1.73;0.63;;;5.30;99.90;;;;;;4882183;29;20123;-41
2023/03/11 09:18:17;;;;;;;;;;;5.40;99.90;;;;;;4881555;29;20025;-46
2023/03/11 09:20:44;;;;;;;0.60;0.15;;;5.40;99.90;;;;;;4879000;29;19919;-43
2023/03/11 09:23:11;;;;;;;1.83;0.50;;;5.40;99.90;;;;;;4881641;29;20133;-45
2023/03/11 09:25:37;;;;;;;0.63;0.35;;;5.40;99.90;;;;;;4881874;29;20043;-41
2023/03/11 09:28:03;;;;;;;1.08;0.28;;;5.30;99.90;;;;;;4864254;29;20389;-42
2023/03/11 09:30:29;;;;;;;1.00;0.50;;;5.40;99.90;;;;;;4879402;29;20029;-40
2023/03/11 09:32:55;;;;;;;0.30;0.30;;;5.50;99.90;;;;;;4880305;29;20486;-40
2023/03/11 09:35:20;;;;;;;6.55;0.38;;;5.60;99.90;;;;;;4879485;29;20461;-42
2023/03/11 09:37:46;;;;;;;2.05;0.70;;;5.70;99.90;;;;;;4880555;29;20104;-47
2023/03/11 09:40:19;;;;;;;3.92;0.90;;;5.80;99.90;;;;;;4880846;29;20021;-42
2023/03/11 09:42:54;;;;;;;6.50;0.40;;;5.80;99.90;;;;;;4879493;29;20025;-39
2023/03/11 09:45:23;;;;;;;1.02;0.75;;;5.80;99.90;;;;;;4878277;29;20036;-57
2023/03/11 09:47:49;;;;;;;1.27;0.52;;;5.90;99.90;;;;;;4880241;29;20029;-45
2023/03/11 09:50:31;;;;;;;3.65;0.40;;;6.00;99.90;;;;;;4878691;29;20029;-41
2023/03/11 09:53:13;;;;;;;5.82;0.70;;;6.00;99.90;;;;;;4879894;29;20037;-41
2023/03/11 09:55:42;;;;;;;1.95;0.50;;;6.10;99.90;;;;;;4880451;29;20033;-41
2023/03/11 09:58:38;;;;;;;2.50;0.60;;;6.10;99.90;;;;;;4874100;29;20086;-41
2023/03/11 10:01:14;;;;;;;4.78;0.88;;;6.20;99.90;;;;;;4879601;29;20045;-40
2023/03/11 10:03:40;;;;;;;4.60;0.60;;;6.40;99.90;;;;;;4894528;29;20029;-39
2023/03/11 10:06:08;;;;;;;4.50;1.33;;;6.50;99.90;;;;;;4881053;29;20027;-44
2023/03/11 10:08:42;;;;;;;0.80;0.60;;;6.50;99.90;;;;;;4881312;29;20128;-41
2023/03/11 10:11:11;;;;;;;2.67;0.50;;;6.60;99.90;;;;;;4880277;29;20021;-32
2023/03/11 10:13:50;;;;;;;8.07;0.95;;;6.70;99.90;;;;;;4878829;29;20029;-34
2023/03/11 10:16:23;;;;;;;6.47;1.17;;;6.80;99.90;;;;;;4880395;29;20390;-39
2023/03/11 10:18:55;;;;;;;2.67;0.98;;;7.00;99.90;;;;;;4880768;29;20497;-36
2023/03/11 10:21:45;;;;;;;3.33;0.60;;;7.00;99.90;;;;;;4878473;29;20033;-36
2023/03/11 10:24:39;;;;;;;9.07;0.63;;;6.90;99.90;;;;;;4874878;29;20120;-37
2023/03/11 10:27:28;;;;;;;3.67;0.55;;;6.90;99.90;;;;;;4875449;29;20033;-34
2023/03/11 10:30:14;;;;;;;0.98;0.40;;;6.80;99.90;;;;;;4880673;29;20033;-38
2023/03/11 10:33:02;;;;;;;1.60;0.60;;;6.80;99.90;;;;;;4875938;29;20029;-35
2023/03/11 10:35:55;;;;;;;3.42;0.47;;;6.80;99.90;;;;;;4874142;29;20036;-35
2023/03/11 10:38:23;;;;;;;3.92;1.20;;;6.80;99.90;;;;;;4873639;29;20525;-39
2023/03/11 10:40:54;;;;;;;4.47;0.40;;;6.80;99.90;;;;;;4875351;29;20126;-38
2023/03/11 10:43:27;;;;;;;5.82;1.23;;;6.70;99.90;;;;;;4876740;29;20037;-43
2023/03/11 10:45:53;;;;;;;2.92;0.73;;;6.60;99.90;;;;;;4860741;29;20051;-36
2023/03/11 10:48:21;;;;;;;0.70;0.60;;;6.50;99.90;;;;;;4872582;29;20108;-36
2023/03/11 10:51:07;;;;;;;3.20;0.30;;;6.60;99.90;;;;;;4877410;29;20044;-38
2023/03/11 10:53:45;;;;;;;5.30;0.60;;;6.70;99.90;;;;;;4872641;29;20044;-45
2023/03/11 10:56:24;;;;;;;2.50;0.40;;;7.00;99.90;;;;;;4864604;29;20029;-50
2023/03/11 10:58:50;;;;;;;8.07;0.70;;;7.10;99.90;;;;;;4879496;29;20100;-42
2023/03/11 11:01:20;;;;;;;1.52;0.65;;;7.30;99.90;;;;;;4879879;29;20025;-43
2023/03/11 11:03:48;;;;;;;0.98;0.77;;;7.40;99.90;;;;;;4863579;29;20033;-44
2023/03/11 11:06:35;;;;;;;0.40;0.30;;;7.40;99.90;;;;;;4861202;29;20166;-39
2023/03/11 11:09:06;;;;;;;4.20;0.55;;;7.40;99.90;;;;;;4864168;29;20021;-36
2023/03/11 11:11:34;;;;;;;1.45;0.47;;;7.30;99.90;;;;;;4879149;29;20033;-36
2023/03/11 11:14:00;;;;;;;;;;;7.40;99.90;;;;;;4880078;29;20048;-39
2023/03/11 11:16:27;;;;;;;3.33;0.77;;;7.30;99.90;;;;;;4879717;29;19919;-32
2023/03/11 11:19:08;;;;;;;1.95;0.70;;;7.30;99.90;;;;;;4878400;29;20026;-42
2023/03/11 11:21:47;;;;;;;1.20;1.05;;;7.30;99.90;;;;;;4875614;29;20053;-39
2023/03/11 11:24:26;;;;;;;2.75;0.98;;;7.20;99.90;;;;;;4861920;29;20534;-44
2023/03/11 11:27:10;;;;;;;5.57;1.05;;;7.30;99.90;;;;;;4879308;29;20052;-47
2023/03/11 11:29:36;;;;;;;8.20;0.70;;;7.40;99.90;;;;;;4875344;29;20029;-37
2023/03/11 11:32:14;;;;;;;5.40;0.80;;;7.50;99.90;;;;;;4878948;29;20549;-42
2023/03/11 11:34:40;;;;;;;4.20;0.60;;;7.50;99.90;;;;;;4878008;29;20538;-44
2023/03/11 11:37:12;;;;;;;2.17;0.30;;;7.60;99.90;;;;;;4877989;29;20085;-40
2023/03/11 11:39:50;;;;;;;3.80;0.57;;;7.70;99.90;;;;;;4877833;29;20056;-43
2023/03/11 11:42:18;;;;;;;8.23;0.73;;;7.80;99.90;;;;;;4879200;29;20550;-43
2023/03/11 11:44:49;;;;;;;3.83;0.55;;;7.80;99.90;;;;;;4879672;29;20065;-41
2023/03/11 11:47:20;;;;;;;1.65;0.40;;;7.80;99.90;;;;;;4878189;29;20040;-41
2023/03/11 11:49:59;;;;;;;9.65;0.57;;;7.90;99.90;;;;;;4879242;29;20033;-43
2023/03/11 11:52:31;;;;;;;1.33;0.52;;;7.90;99.90;;;;;;4879250;29;20084;-42
2023/03/11 11:55:06;;;;;;;0.63;0.63;;;7.90;99.90;;;;;;4877190;29;20064;-42
2023/03/11 11:57:31;;;;;;;5.80;0.40;;;7.90;99.90;;;;;;4879278;29;20037;-46
2023/03/11 11:59:57;;;;;;;3.92;0.30;;;8.00;99.90;;;;;;4877306;29;20065;-41
2023/03/11 12:02:45;;;;;;;3.75;0.80;;;8.00;99.90;;;;;;4872961;29;20538;-42
2023/03/11 12:05:24;;;;;;;0.38;0.28;;;8.10;99.90;;;;;;4877659;29;20119;-42
2023/03/11 12:08:06;;;;;;;3.30;0.30;;;8.00;99.90;;;;;;4879346;29;20504;-42
2023/03/11 12:10:56;;;;;;;3.30;0.40;;;8.10;99.90;;;;;;4876771;29;20040;-44
2023/03/11 12:14:02;;;;;;;1.23;0.43;;;8.10;99.90;;;;;;4876927;29;20037;-40
2023/03/11 12:16:41;;;;;;;0.60;0.50;;;8.10;99.90;;;;;;4879031;29;20124;-37
2023/03/11 12:19:42;;;;;;;5.00;0.88;;;8.10;99.90;;;;;;4869423;29;20116;-36
2023/03/11 12:22:17;;;;;;;6.10;1.17;;;8.20;99.90;;;;;;4860900;29;20025;-37
2023/03/11 12:24:45;;;;;;;1.17;0.57;;;8.30;99.90;;;;;;4877603;29;20078;-36
2023/03/11 12:27:18;;;;;;;0.73;0.60;;;8.40;99.90;;;;;;4878276;29;20037;-38
2023/03/11 12:29:49;;;;;;;6.50;0.55;;;8.50;99.90;;;;;;4877296;29;20029;-37
2023/03/11 12:32:42;;;;;;;4.30;0.30;;;8.60;99.90;;;;;;4878952;29;20401;-31
2023/03/11 12:35:19;;;;;;;2.10;0.55;;;8.60;99.90;;;;;;4876732;29;20045;-36
2023/03/11 12:37:45;;;;;;;2.25;0.35;;;8.60;99.90;;;;;;4876552;29;20115;-38
2023/03/11 12:40:45;;;;;;;3.10;0.65;;;8.60;99.90;;;;;;4879631;29;20108;-35
2023/03/11 12:43:34;;;;;;;4.25;0.60;;;8.60;99.90;;;;;;4880883;29;20029;-37
2023/03/11 12:45:59;;;;;;;3.35;0.93;;;8.70;99.90;;;;;;4881036;29;20032;-37
2023/03/11 12:48:44;;;;;;;2.25;0.30;;;8.60;99.90;;;;;;4881820;29;20044;-35
2023/03/11 12:51:25;;;;;;;3.75;1.00;;;8.80;99.90;;;;;;4887772;29;20064;-37
2023/03/11 12:53:53;;;;;;;5.55;0.65;;;8.90;99.90;;;;;;4889657;29;20104;-36
2023/03/11 12:56:18;;;;;;;2.95;0.65;;;8.90;99.90;;;;;;4881737;29;20033;-38
2023/03/11 12:58:47;;;;;;;2.38;0.50;;;8.80;99.90;;;;;;4877391;29;21288;-36
2023/03/11 13:01:44;;;;;;;3.47;0.68;;;8.80;99.90;;;;;;4877792;29;20051;-39
2023/03/11 13:04:25;;;;;;;6.07;0.60;;;8.90;99.90;;;;;;4876033;29;20059;-36
2023/03/11 13:07:28;;;;;;;1.67;0.63;;;8.90;99.90;;;;;;4878476;29;20112;-36